createdAt,value
2023-05-22T00:01:56.604Z,3.50
2023-05-22T00:04:23.724Z,3.58
2023-05-22T00:06:50.776Z,3.75
2023-05-22T00:09:17.785Z,3.65
2023-05-22T00:11:44.897Z,3.67
2023-05-22T00:14:13.545Z,3.63
2023-05-22T00:16:41.243Z,3.53
2023-05-22T00:19:16.478Z,3.90
2023-05-22T00:21:44.329Z,4.00
2023-05-22T00:24:11.281Z,3.72
2023-05-22T00:26:38.242Z,3.38
2023-05-22T00:29:08.042Z,3.65
2023-05-22T00:31:35.012Z,4.13
2023-05-22T00:34:02.038Z,4.03
2023-05-22T00:36:29.327Z,3.90
2023-05-22T00:38:56.449Z,3.58
2023-05-22T00:41:23.319Z,3.78
2023-05-22T00:43:51.257Z,4.18
2023-05-22T00:46:21.696Z,3.60
2023-05-22T00:48:49.250Z,4.00
2023-05-22T00:51:16.173Z,3.90
2023-05-22T00:53:43.441Z,3.55
2023-05-22T00:56:10.435Z,3.80
2023-05-22T00:58:37.568Z,3.72
2023-05-22T01:01:09.703Z,4.25
2023-05-22T01:03:37.590Z,3.90
2023-05-22T01:06:04.862Z,3.33
2023-05-22T01:08:31.878Z,3.25
2023-05-22T01:11:32.055Z,4.15
2023-05-22T01:14:17.498Z,3.80
2023-05-22T01:16:49.004Z,3.53
2023-05-22T01:19:51.281Z,3.65
2023-05-22T01:22:38.737Z,3.70
2023-05-22T01:25:17.344Z,3.55
2023-05-22T01:28:11.915Z,3.97
2023-05-22T01:30:46.213Z,3.75
2023-05-22T01:33:17.261Z,4.03
2023-05-22T01:35:48.869Z,3.30
2023-05-22T01:38:16.004Z,4.00
2023-05-22T01:40:43.763Z,3.78
2023-05-22T01:43:10.696Z,3.90
2023-05-22T01:45:38.888Z,3.85
2023-05-22T01:48:06.903Z,4.05
2023-05-22T01:50:33.879Z,3.90
2023-05-22T01:53:20.111Z,3.63
2023-05-22T01:55:51.759Z,3.90
2023-05-22T01:58:27.253Z,3.78
2023-05-22T02:00:54.828Z,3.83
2023-05-22T02:03:22.983Z,4.28
2023-05-22T02:05:54.226Z,4.25
2023-05-22T02:08:21.734Z,4.15
2023-05-22T02:10:51.790Z,3.85
2023-05-22T02:13:21.216Z,3.60
2023-05-22T02:15:48.848Z,4.20
2023-05-22T02:18:16.370Z,3.50
2023-05-22T02:20:43.810Z,3.92
2023-05-22T02:23:10.969Z,3.63
2023-05-22T02:25:38.033Z,4.32
2023-05-22T02:28:05.010Z,4.30
2023-05-22T02:30:32.654Z,4.10
2023-05-22T02:33:00.152Z,3.97
2023-05-22T02:35:27.184Z,3.95
2023-05-22T02:37:54.243Z,3.97
2023-05-22T02:40:21.343Z,4.03
2023-05-22T02:42:48.444Z,4.10
2023-05-22T02:45:17.081Z,4.30
2023-05-22T02:47:44.046Z,4.05
2023-05-22T02:50:12.033Z,4.30
2023-05-22T02:52:39.317Z,4.10
2023-05-22T02:55:07.366Z,3.83
2023-05-22T02:57:34.365Z,3.97
2023-05-22T03:00:01.590Z,4.38
2023-05-22T03:02:30.188Z,4.20
2023-05-22T03:04:59.184Z,4.00
2023-05-22T03:07:29.826Z,4.32
2023-05-22T03:09:56.898Z,4.45
2023-05-22T03:12:23.750Z,4.40
2023-05-22T03:14:50.775Z,4.47
2023-05-22T03:17:17.771Z,4.43
2023-05-22T03:19:44.848Z,4.68
2023-05-22T03:22:12.053Z,4.47
2023-05-22T03:24:39.797Z,4.47
2023-05-22T03:27:07.726Z,4.70
2023-05-22T03:29:41.405Z,4.72
2023-05-22T03:32:08.609Z,4.80
2023-05-22T03:34:36.533Z,4.82
2023-05-22T03:37:05.201Z,4.15
2023-05-22T03:39:32.537Z,4.40
2023-05-22T03:42:16.302Z,4.22
2023-05-22T03:44:43.409Z,4.57
2023-05-22T03:47:10.274Z,4.55
2023-05-22T03:49:37.396Z,4.10
2023-05-22T03:52:05.671Z,4.50
2023-05-22T03:54:32.523Z,4.60
2023-05-22T03:56:59.457Z,4.72
2023-05-22T03:59:26.314Z,4.25
2023-05-22T04:01:53.249Z,4.63
2023-05-22T04:04:20.077Z,4.10
2023-05-22T04:06:52.117Z,3.95
2023-05-22T04:09:19.175Z,4.20
2023-05-22T04:11:46.528Z,4.53
2023-05-22T04:14:13.405Z,4.43
2023-05-22T04:16:40.291Z,4.32
2023-05-22T04:19:09.556Z,4.70
2023-05-22T04:21:36.748Z,4.07
2023-05-22T04:24:07.322Z,4.45
2023-05-22T04:26:34.515Z,4.60
2023-05-22T04:29:02.262Z,4.80
2023-05-22T04:31:29.423Z,4.43
2023-05-22T04:33:56.515Z,5.47
2023-05-22T04:36:26.133Z,4.70
2023-05-22T04:38:54.114Z,4.45
2023-05-22T04:41:26.688Z,4.60
2023-05-22T04:43:54.594Z,5.85
2023-05-22T04:46:21.582Z,5.70
2023-05-22T04:48:48.702Z,4.95
2023-05-22T04:51:16.199Z,5.25
2023-05-22T04:53:43.359Z,5.43
2023-05-22T04:56:11.821Z,5.30
2023-05-22T04:58:40.281Z,5.53
2023-05-22T05:01:07.378Z,6.00
2023-05-22T05:03:34.780Z,6.47
2023-05-22T05:06:01.718Z,5.40
2023-05-22T05:08:28.659Z,5.38
2023-05-22T05:10:55.533Z,5.60
2023-05-22T05:13:23.225Z,5.90
2023-05-22T05:15:50.671Z,6.05
2023-05-22T05:18:19.518Z,6.13
2023-05-22T05:20:46.724Z,5.50
2023-05-22T05:23:13.755Z,5.30
2023-05-22T05:25:41.017Z,5.93
2023-05-22T05:28:11.303Z,5.72
2023-05-22T05:30:40.125Z,5.78
2023-05-22T05:33:13.008Z,5.90
2023-05-22T05:36:00.509Z,5.75
2023-05-22T05:38:28.246Z,5.75
2023-05-22T05:40:56.174Z,5.60
2023-05-22T05:43:25.369Z,5.32
2023-05-22T05:45:59.053Z,5.55
2023-05-22T05:48:26.033Z,5.60
2023-05-22T05:50:52.920Z,5.40
2023-05-22T05:53:19.843Z,6.22
2023-05-22T05:55:52.608Z,5.13
2023-05-22T05:58:20.255Z,5.03
2023-05-22T06:01:09.969Z,5.10
2023-05-22T06:03:38.512Z,5.20
2023-05-22T06:06:12.000Z,5.00
2023-05-22T06:09:06.381Z,4.68
2023-05-22T06:11:37.408Z,5.20
2023-05-22T06:14:07.030Z,4.75
2023-05-22T06:16:34.030Z,5.00
2023-05-22T06:19:01.178Z,4.55
2023-05-22T06:21:28.165Z,4.85
2023-05-22T06:23:55.149Z,4.78
2023-05-22T06:26:23.550Z,4.63
2023-05-22T06:28:51.947Z,4.75
2023-05-22T06:31:22.582Z,4.65
2023-05-22T06:33:52.008Z,4.35
2023-05-22T06:36:22.289Z,5.35
2023-05-22T06:38:49.697Z,5.00
2023-05-22T06:41:36.514Z,5.45
2023-05-22T06:44:06.463Z,4.55
2023-05-22T06:46:38.420Z,4.80
2023-05-22T06:49:06.371Z,4.80
2023-05-22T06:51:36.957Z,4.90
2023-05-22T06:54:12.343Z,5.15
2023-05-22T06:56:41.533Z,4.87
2023-05-22T06:59:14.477Z,5.18
2023-05-22T07:02:00.288Z,4.85
2023-05-22T07:04:45.776Z,5.53
2023-05-22T07:07:17.495Z,5.32
2023-05-22T07:09:44.516Z,5.30
2023-05-22T07:12:12.678Z,5.30
2023-05-22T07:14:40.258Z,4.80
2023-05-22T07:17:07.367Z,5.32
2023-05-22T07:19:40.397Z,5.75
2023-05-22T07:22:07.266Z,5.65
2023-05-22T07:24:36.762Z,5.80
2023-05-22T07:27:05.616Z,5.80
2023-05-22T07:29:33.864Z,5.80
2023-05-22T07:32:01.625Z,5.70
2023-05-22T07:34:33.163Z,5.10
2023-05-22T07:37:08.934Z,5.25
2023-05-22T07:39:35.949Z,5.65
2023-05-22T07:42:04.785Z,5.18
2023-05-22T07:44:34.409Z,5.22
2023-05-22T07:47:01.964Z,5.18
2023-05-22T07:49:30.192Z,5.90
2023-05-22T07:51:57.066Z,5.25
2023-05-22T07:54:26.122Z,5.30
2023-05-22T07:56:53.172Z,4.60
2023-05-22T07:59:23.751Z,5.15
2023-05-22T08:01:51.431Z,5.43
2023-05-22T08:04:18.615Z,5.55
2023-05-22T08:06:45.762Z,5.07
2023-05-22T08:09:12.693Z,5.22
2023-05-22T08:11:42.157Z,5.20
2023-05-22T08:14:09.242Z,4.85
2023-05-22T08:16:36.444Z,4.93
2023-05-22T08:19:03.927Z,5.35
2023-05-22T08:21:33.130Z,5.40
2023-05-22T08:24:00.592Z,4.57
2023-05-22T08:26:28.089Z,5.05
2023-05-22T08:28:56.001Z,5.10
2023-05-22T08:31:23.220Z,5.22
2023-05-22T08:33:50.096Z,5.07
2023-05-22T08:36:17.046Z,5.00
2023-05-22T08:38:43.872Z,5.22
2023-05-22T08:41:11.056Z,4.80
2023-05-22T08:43:37.912Z,4.93
2023-05-22T08:46:05.956Z,5.05
2023-05-22T08:48:33.108Z,3.97
2023-05-22T08:51:04.273Z,4.60
2023-05-22T08:53:33.902Z,4.22
2023-05-22T08:56:00.970Z,4.68
2023-05-22T08:58:27.779Z,4.35
2023-05-22T09:00:54.707Z,4.57
2023-05-22T09:03:23.083Z,4.43
2023-05-22T09:05:50.114Z,4.35
2023-05-22T09:08:21.132Z,4.40
2023-05-22T09:10:48.445Z,4.40
2023-05-22T09:13:24.897Z,4.00
2023-05-22T09:15:51.815Z,3.95
2023-05-22T09:18:18.774Z,4.18
2023-05-22T09:20:45.937Z,4.30
2023-05-22T09:23:14.585Z,3.72
2023-05-22T09:25:42.226Z,3.92
2023-05-22T09:28:09.241Z,4.10
2023-05-22T09:30:36.533Z,4.25
2023-05-22T09:33:09.455Z,4.40
2023-05-22T09:35:39.037Z,4.05
2023-05-22T09:38:06.498Z,4.30
2023-05-22T09:40:35.082Z,4.07
2023-05-22T09:43:04.236Z,4.18
2023-05-22T09:45:31.237Z,4.60
2023-05-22T09:47:58.213Z,4.60
2023-05-22T09:50:25.116Z,4.60
2023-05-22T09:52:52.080Z,4.70
2023-05-22T09:55:18.945Z,4.70
2023-05-22T09:57:46.502Z,4.25
2023-05-22T10:00:15.769Z,4.70
2023-05-22T10:02:46.823Z,4.25
2023-05-22T10:05:21.908Z,4.35
2023-05-22T10:07:54.702Z,4.18
2023-05-22T10:10:22.957Z,4.43
2023-05-22T10:13:07.966Z,4.38
2023-05-22T10:15:35.717Z,4.10
2023-05-22T10:18:03.125Z,4.25
2023-05-22T10:20:30.366Z,5.03
2023-05-22T10:22:57.652Z,4.38
2023-05-22T10:25:25.987Z,4.18
2023-05-22T10:27:53.180Z,4.50
2023-05-22T10:30:33.200Z,4.20
2023-05-22T10:33:26.026Z,5.10
2023-05-22T10:35:53.872Z,4.72
2023-05-22T10:38:52.019Z,4.50
2023-05-22T10:41:18.941Z,4.70
2023-05-22T10:43:49.098Z,4.50
2023-05-22T10:46:16.152Z,4.50
2023-05-22T10:48:50.557Z,4.75
2023-05-22T10:51:21.869Z,4.47
2023-05-22T10:53:55.649Z,4.60
2023-05-22T10:56:25.319Z,4.13
2023-05-22T10:58:56.913Z,4.10
2023-05-22T11:01:25.903Z,4.05
2023-05-22T11:04:15.864Z,4.40
2023-05-22T11:07:05.025Z,4.60
2023-05-22T11:09:32.470Z,4.13
2023-05-22T11:12:28.765Z,4.50
2023-05-22T11:14:59.415Z,3.88
2023-05-22T11:17:33.615Z,4.07
2023-05-22T11:20:02.590Z,4.10
2023-05-22T11:22:51.012Z,3.65
2023-05-22T11:25:18.966Z,4.03
2023-05-22T11:27:47.338Z,3.58
2023-05-22T11:30:14.798Z,4.05
2023-05-22T11:32:45.719Z,4.15
2023-05-22T11:35:17.353Z,4.13
2023-05-22T11:37:44.563Z,3.88
2023-05-22T11:40:17.951Z,4.05
2023-05-22T11:42:45.061Z,3.63
2023-05-22T11:45:12.132Z,3.75
2023-05-22T11:47:39.292Z,3.83
2023-05-22T11:50:11.882Z,4.07
2023-05-22T11:52:41.224Z,3.95
2023-05-22T11:55:09.161Z,4.00
2023-05-22T11:57:36.859Z,4.32
2023-05-22T12:00:06.469Z,4.00
2023-05-22T12:02:39.217Z,4.22
2023-05-22T12:05:12.481Z,4.07
2023-05-22T12:07:39.607Z,4.20
2023-05-22T12:10:07.567Z,4.28
2023-05-22T12:12:34.596Z,4.20
2023-05-22T12:15:01.533Z,3.90
2023-05-22T12:17:28.676Z,4.13
2023-05-22T12:19:55.631Z,4.10
2023-05-22T12:22:29.714Z,4.25
2023-05-22T12:24:56.783Z,4.18
2023-05-22T12:27:23.700Z,3.78
2023-05-22T12:29:52.879Z,4.45
2023-05-22T12:32:21.881Z,4.20
2023-05-22T12:34:50.365Z,3.95
2023-05-22T12:37:30.042Z,4.28
2023-05-22T12:40:03.987Z,4.10
2023-05-22T12:42:39.262Z,3.95
2023-05-22T12:45:23.192Z,4.07
2023-05-22T12:47:50.930Z,4.30
2023-05-22T12:50:17.884Z,4.15
2023-05-22T12:52:44.897Z,4.10
2023-05-22T12:55:11.820Z,3.88
2023-05-22T12:57:38.739Z,3.80
2023-05-22T13:00:06.408Z,3.78
2023-05-22T13:02:33.381Z,3.60
2023-05-22T13:05:00.353Z,3.78
2023-05-22T13:07:27.244Z,3.78
2023-05-22T13:09:54.121Z,3.95
2023-05-22T13:12:21.131Z,4.40
2023-05-22T13:14:48.011Z,4.53
2023-05-22T13:17:15.190Z,3.85
2023-05-22T13:19:42.066Z,3.95
2023-05-22T13:22:09.064Z,4.20
2023-05-22T13:24:36.174Z,4.22
2023-05-22T13:27:03.251Z,3.78
2023-05-22T13:29:30.196Z,4.25
2023-05-22T13:31:57.082Z,3.88
2023-05-22T13:34:24.165Z,4.32
2023-05-22T13:36:51.245Z,3.83
2023-05-22T13:39:18.130Z,4.10
2023-05-22T13:41:45.291Z,3.85
2023-05-22T13:44:12.211Z,3.95
2023-05-22T13:46:40.778Z,3.90
2023-05-22T13:49:08.074Z,3.85
2023-05-22T13:51:35.073Z,3.67
2023-05-22T13:54:02.889Z,4.07
2023-05-22T13:56:29.810Z,4.05
2023-05-22T13:58:57.024Z,3.80
2023-05-22T14:01:24.055Z,3.72
2023-05-22T14:03:51.026Z,3.47
2023-05-22T14:06:17.936Z,3.90
2023-05-22T14:08:44.782Z,3.80
2023-05-22T14:11:11.661Z,3.58
2023-05-22T14:13:38.598Z,3.58
2023-05-22T14:16:05.633Z,3.80
2023-05-22T14:18:32.580Z,4.03
2023-05-22T14:20:59.624Z,4.68
2023-05-22T14:23:26.474Z,4.10
2023-05-22T14:25:53.416Z,4.80
2023-05-22T14:28:20.390Z,4.30
2023-05-22T14:30:47.354Z,4.25
2023-05-22T14:33:14.377Z,4.85
2023-05-22T14:35:41.494Z,4.70
2023-05-22T14:38:08.711Z,4.60
2023-05-22T14:40:35.804Z,4.65
2023-05-22T14:43:02.692Z,4.38
2023-05-22T14:45:29.595Z,5.20
2023-05-22T14:47:56.494Z,4.50
2023-05-22T14:50:23.448Z,4.53
2023-05-22T14:52:50.361Z,4.53
2023-05-22T14:55:17.845Z,4.85
2023-05-22T14:57:44.871Z,4.65
2023-05-22T15:00:12.644Z,4.90
2023-05-22T15:02:40.221Z,4.97
2023-05-22T15:05:07.987Z,4.72
2023-05-22T15:07:43.779Z,4.63
2023-05-22T15:10:12.386Z,4.80
2023-05-22T15:12:39.343Z,4.80
2023-05-22T15:15:06.730Z,4.85
2023-05-22T15:17:33.691Z,4.60
2023-05-22T15:20:00.587Z,4.75
2023-05-22T15:22:27.464Z,4.97
2023-05-22T15:25:07.951Z,4.95
2023-05-22T15:27:35.210Z,5.03
2023-05-22T15:30:02.687Z,5.10
2023-05-22T15:32:30.757Z,5.28
2023-05-22T15:34:57.733Z,5.40
2023-05-22T15:37:24.620Z,5.00
2023-05-22T15:39:51.496Z,5.38
2023-05-22T15:42:20.587Z,5.30
2023-05-22T15:44:47.487Z,5.03
2023-05-22T15:47:14.866Z,5.18
2023-05-22T15:49:41.721Z,4.60
2023-05-22T15:52:08.746Z,4.35
2023-05-22T15:54:35.763Z,4.35
2023-05-22T15:57:02.604Z,4.72
2023-05-22T15:59:29.537Z,4.75
2023-05-22T16:01:56.419Z,4.15
2023-05-22T16:04:23.312Z,3.67
2023-05-22T16:06:50.129Z,3.70
2023-05-22T16:09:18.568Z,4.10
2023-05-22T16:11:45.561Z,4.03
2023-05-22T16:14:12.477Z,3.58
2023-05-22T16:16:39.467Z,3.60
2023-05-22T16:19:06.353Z,3.47
2023-05-22T16:21:33.261Z,3.70
2023-05-22T16:24:00.295Z,3.55
2023-05-22T16:26:27.173Z,4.20
2023-05-22T16:28:54.057Z,3.60
2023-05-22T16:31:20.919Z,3.72
2023-05-22T16:33:47.964Z,3.40
2023-05-22T16:36:14.850Z,3.70
2023-05-22T16:38:42.058Z,3.13
2023-05-22T16:41:08.980Z,3.40
2023-05-22T16:43:37.707Z,3.60
2023-05-22T16:46:04.657Z,3.38
2023-05-22T16:48:31.619Z,3.67
2023-05-22T16:50:58.481Z,3.45
2023-05-22T16:53:25.416Z,3.10
2023-05-22T16:55:52.305Z,4.00
2023-05-22T16:58:19.244Z,3.50
2023-05-22T17:00:46.360Z,3.55
2023-05-22T17:03:14.097Z,3.40
2023-05-22T17:05:41.576Z,3.53
2023-05-22T17:08:08.756Z,3.95
2023-05-22T17:10:35.737Z,3.75
2023-05-22T17:13:02.833Z,3.78
2023-05-22T17:15:29.702Z,3.50
2023-05-22T17:17:56.839Z,3.80
2023-05-22T17:20:23.756Z,3.60
2023-05-22T17:22:50.730Z,3.53
2023-05-22T17:25:17.706Z,3.65
2023-05-22T17:27:44.819Z,3.50
2023-05-22T17:30:12.007Z,3.88
2023-05-22T17:32:38.936Z,3.63
2023-05-22T17:35:06.953Z,3.25
2023-05-22T17:37:34.108Z,3.90
2023-05-22T17:40:01.044Z,3.85
2023-05-22T17:42:41.848Z,3.80
2023-05-22T17:45:09.431Z,3.50
2023-05-22T17:47:36.341Z,3.70
2023-05-22T17:50:03.278Z,3.35
2023-05-22T17:52:30.126Z,3.83
2023-05-22T17:54:57.005Z,3.60
2023-05-22T17:57:23.848Z,3.30
2023-05-22T17:59:50.748Z,3.15
2023-05-22T18:02:17.677Z,3.40
2023-05-22T18:04:44.642Z,3.00
2023-05-22T18:07:11.603Z,3.17
2023-05-22T18:09:38.531Z,3.53
2023-05-22T18:12:05.635Z,3.00
2023-05-22T18:14:32.538Z,3.13
2023-05-22T18:16:59.463Z,3.00
2023-05-22T18:19:26.383Z,3.28
2023-05-22T18:21:53.725Z,2.80
2023-05-22T18:24:25.101Z,2.70
2023-05-22T18:26:52.332Z,2.80
2023-05-22T18:29:19.267Z,2.83
2023-05-22T18:31:46.205Z,2.90
2023-05-22T18:34:13.688Z,3.08
2023-05-22T18:36:43.407Z,3.15
2023-05-22T18:39:11.042Z,2.95
2023-05-22T18:41:37.981Z,3.28
2023-05-22T18:44:04.869Z,3.30
2023-05-22T18:46:31.702Z,3.17
2023-05-22T18:48:58.608Z,2.78
2023-05-22T18:51:25.774Z,2.92
2023-05-22T18:53:52.751Z,3.00
2023-05-22T18:56:19.621Z,3.13
2023-05-22T18:58:46.570Z,3.35
2023-05-22T19:01:13.540Z,3.08
2023-05-22T19:03:41.072Z,2.85
2023-05-22T19:06:08.205Z,3.00
2023-05-22T19:08:35.109Z,2.78
2023-05-22T19:11:02.047Z,3.10
2023-05-22T19:13:29.449Z,3.20
2023-05-22T19:15:57.323Z,3.20
2023-05-22T19:18:24.715Z,3.17
2023-05-22T19:20:51.608Z,3.55
2023-05-22T19:23:18.800Z,3.17
2023-05-22T19:25:45.756Z,3.17
2023-05-22T19:28:12.696Z,2.92
2023-05-22T19:30:40.091Z,3.10
2023-05-22T19:33:09.033Z,2.70
2023-05-22T19:35:36.076Z,3.40
2023-05-22T19:38:02.955Z,3.10
2023-05-22T19:40:29.819Z,3.20
2023-05-22T19:42:56.916Z,3.55
2023-05-22T19:45:25.907Z,3.10
2023-05-22T19:47:53.080Z,3.40
2023-05-22T19:50:19.938Z,3.42
2023-05-22T19:52:46.824Z,3.67
2023-05-22T19:55:13.696Z,3.20
2023-05-22T19:57:44.225Z,3.50
2023-05-22T20:00:12.130Z,3.45
2023-05-22T20:02:39.878Z,4.05
2023-05-22T20:05:13.018Z,3.70
2023-05-22T20:07:41.164Z,4.00
2023-05-22T20:10:10.081Z,3.88
2023-05-22T20:12:37.448Z,4.10
2023-05-22T20:15:06.818Z,4.22
2023-05-22T20:17:34.227Z,3.88
2023-05-22T20:20:01.259Z,4.32
2023-05-22T20:22:28.206Z,4.00
2023-05-22T20:24:55.094Z,4.18
2023-05-22T20:27:22.108Z,4.03
2023-05-22T20:29:50.264Z,3.90
2023-05-22T20:32:17.427Z,3.88
2023-05-22T20:34:45.489Z,4.20
2023-05-22T20:37:13.641Z,4.65
2023-05-22T20:39:44.295Z,4.45
2023-05-22T20:42:13.045Z,4.50
2023-05-22T20:44:41.296Z,4.50
2023-05-22T20:47:11.362Z,4.70
2023-05-22T20:49:38.754Z,4.72
2023-05-22T20:52:05.869Z,5.40
2023-05-22T20:54:34.612Z,4.65
2023-05-22T20:57:01.939Z,4.88
2023-05-22T20:59:29.128Z,5.18
2023-05-22T21:01:57.065Z,4.88
2023-05-22T21:04:24.242Z,5.00
2023-05-22T21:06:51.392Z,4.70
2023-05-22T21:09:18.337Z,5.40
2023-05-22T21:11:45.249Z,4.70
2023-05-22T21:14:12.183Z,5.13
2023-05-22T21:16:40.148Z,5.18
2023-05-22T21:19:07.464Z,5.07
2023-05-22T21:21:36.282Z,5.13
2023-05-22T21:24:03.463Z,5.72
2023-05-22T21:26:30.391Z,5.40
2023-05-22T21:28:57.391Z,5.75
2023-05-22T21:31:24.363Z,5.68
2023-05-22T21:33:51.426Z,5.57
2023-05-22T21:36:18.382Z,5.55
2023-05-22T21:38:45.724Z,5.47
2023-05-22T21:41:13.137Z,5.40
2023-05-22T21:43:40.070Z,5.80
2023-05-22T21:46:07.188Z,5.57
2023-05-22T21:48:34.091Z,5.43
2023-05-22T21:51:00.931Z,5.85
2023-05-22T21:53:27.812Z,5.85
2023-05-22T21:55:54.742Z,5.60
2023-05-22T21:58:21.671Z,6.00
2023-05-22T22:00:48.560Z,5.57
2023-05-22T22:03:15.765Z,5.88
2023-05-22T22:05:42.803Z,6.00
2023-05-22T22:08:09.664Z,5.50
2023-05-22T22:10:36.878Z,5.80
2023-05-22T22:13:03.819Z,5.88
2023-05-22T22:15:32.104Z,5.75
2023-05-22T22:18:02.313Z,5.97
2023-05-22T22:20:44.163Z,5.75
2023-05-22T22:23:12.207Z,5.80
2023-05-22T22:25:39.574Z,6.25
2023-05-22T22:28:07.322Z,6.40
2023-05-22T22:30:35.263Z,5.70
2023-05-22T22:33:02.623Z,5.80
2023-05-22T22:35:29.685Z,6.10
2023-05-22T22:37:56.929Z,6.20
2023-05-22T22:40:25.977Z,5.32
2023-05-22T22:42:53.636Z,5.78
2023-05-22T22:45:20.679Z,6.15
2023-05-22T22:47:48.268Z,6.38
2023-05-22T22:50:15.164Z,6.38
2023-05-22T22:52:45.394Z,6.05
2023-05-22T22:55:13.425Z,6.57
2023-05-22T22:57:43.243Z,5.97
2023-05-22T23:00:13.186Z,6.70
2023-05-22T23:02:40.741Z,6.30
2023-05-22T23:05:08.224Z,6.57
2023-05-22T23:07:35.191Z,6.60
2023-05-22T23:10:02.145Z,6.10
2023-05-22T23:12:29.056Z,6.38
2023-05-22T23:14:56.016Z,6.28
2023-05-22T23:17:22.953Z,7.65
2023-05-22T23:19:49.831Z,6.50
2023-05-22T23:22:17.612Z,6.50
2023-05-22T23:24:44.792Z,6.45
2023-05-22T23:27:11.788Z,7.10
2023-05-22T23:29:38.705Z,6.55
2023-05-22T23:32:05.809Z,6.80
2023-05-22T23:34:32.637Z,6.70
2023-05-22T23:36:59.541Z,6.60
2023-05-22T23:39:26.990Z,6.22
2023-05-22T23:41:54.739Z,6.95
2023-05-22T23:44:21.787Z,7.22
2023-05-22T23:46:50.032Z,6.32
2023-05-22T23:49:16.930Z,6.90
2023-05-22T23:51:43.775Z,6.85
2023-05-22T23:54:11.305Z,7.68
2023-05-22T23:56:38.225Z,7.00
2023-05-22T23:59:05.124Z,6.68
